Airfield :
LOGIN :

Register | Disclaimer

   EN    FR    IT 

 










Legend :    VFR   Marginal VFR   IFR   Intensive IFR   Very Intensive IFR
Visi :
Ceiling :
>= 8 km
>= 3000ft
5 to 8 km
1000 to 3000 ft
1500m to 5 km
500 to 1000 ft
800 to 1500m
200 to 500 ft
< 800m
< 200 ft
Symbols :   Thunderstorms  Fog  Heavy snow  Heavy precipitations  Wind > 20 kt
SIGMETs :     Misc.  Thunderstorms  Icing  Turbulence  Mountain Waves  Volcanic Ashes







- Airport Elevation : 505 ft
- IATA code : SXB
- Download approach charts


LFST - Strasbourg

CURRENT METAR :
  • 181530Z AUTO 28013KT 7000 RA FEW033/// SCT039/// OVC048/// ///TCU 09/07 Q1004 BECMG BKN030 BKN070

EXPIRED METARs :
  • 181500Z AUTO 27011KT 9999 -RA FEW030/// SCT036/// OVC058/// ///TCU 10/07 Q1004 TEMPO 29025G50KT SHRA BECMG BKN030 BKN070
  • 181430Z AUTO 24021KT 9999 -RA FEW036/// BKN062/// BKN074/// ///CB 10/07 Q1003 TEMPO 29025G50KT SHRA BECMG BKN030 BKN070
  • 181400Z AUTO 24023KT 9999 FEW030/// SCT049/// BKN094/// ///TCU 11/06 Q1003 TEMPO 29025G50KT RA BECMG BKN030 BKN070
  • 181330Z AUTO 24026KT 9999 FEW020/// ///TCU 12/06 Q1003 TEMPO 29025G50KT RA BECMG BKN030 BKN070
  • 181300Z AUTO 24024KT 9999 FEW028 BKN034 12/06 Q1003 TEMPO 29025G50KT RA

TAF TAF LFST
Valid from the 18 at 12:00 until the 19 at 12:00 UTC


181100Z 1812/1912 18015G30KT 9999 BKN030 BKN070
BECMG 1812/1814 26020G35KT
PROB40
TEMPO 1814/1816 29025G50KT RA
BECMG 1816/1818 26012KT
PROB40
TEMPO 1816/1822 SHRA
TEMPO 1822/1908 28020G30KT
BECMG 1908/1910 SCT030
TEMPO 1910/1912 FEW030CB
No reported NOTAMs for that airfield.
1 SIGMET reported for the Reims FIR (LFEE) :
 
Severe turbulence
LFEE SIGMET 7 VALID 181300/181700 LFPW
LFEE REIMS FIR/UIR SEV TURB FCST NE OF LINE N4645 E00630 - N4745 E00500 SFC/FL060 MOV SE 20KT NC=



MET'MAP, your aeronautical weather chart ! - Copyright ORBIFLY December 2007 - Disclaimer

ORBIFLY MET'MAP TEAM :

Programming & Development : Alexandra Zaïnal
Concept & Development : Baudouin d'Aumeries
Co-Development & Prog : Marc-Olivier Méhu
Technical & hardware support : Manuel Goepfert

Contact : metmap@orbifly.com




SOURCES & CREDITS :

   NOAA